Time;durP1;ratioP1;P1;durP2;ratioP2;P2;SDS_P1;SDS_P2;PMS_P1;PMS_P2;Temp;Humidity;BMP_temperature;BMP_pressure;BME280_temperature;BME280_humidity;BME280_pressure;Samples;Min_cycle;Max_cycle;Signal;HPM_P1;HPM_P2
2023/02/03 12:01:14;;;;;;;;;20.50;12.75;;;;;18.26;57.07;102805.25;5123077;27;45591;-87
2023/02/03 12:03:59;;;;;;;;;15.50;10.25;;;;;18.34;56.98;102795.28;5103595;27;45450;-82
2023/02/03 12:06:45;;;;;;;;;17.25;11.75;;;;;18.52;57.30;102802.78;5112101;27;45377;-83
2023/02/03 12:09:21;;;;;;;;;16.75;12.00;;;;;18.68;57.25;102807.63;5106622;27;45542;-79
2023/02/03 12:12:19;;;;;;;;;11.50;11.00;;;;;18.84;56.98;102824.00;5103692;27;47212;-76
2023/02/03 12:15:35;;;;;;;;;15.00;8.50;;;;;19.01;56.64;102807.63;5092927;27;46048;-76
2023/02/03 12:18:38;;;;;;;;;8.25;7.75;;;;;19.14;56.30;102791.28;5025376;28;45488;-76
2023/02/03 12:21:31;;;;;;;;;8.50;6.50;;;;;19.27;55.92;102788.25;5123178;27;45476;-85
2023/02/03 12:24:13;;;;;;;;;9.25;7.00;;;;;19.38;55.86;102801.19;5110676;27;48052;-79
2023/02/03 12:27:17;;;;;;;;;10.75;7.75;;;;;19.41;55.27;102796.66;5108441;27;45335;-79
2023/02/03 12:29:48;;;;;;;;;8.00;5.25;;;;;19.48;55.01;102779.63;5072482;27;45601;-77
2023/02/03 12:32:18;;;;;;;;;6.50;5.25;;;;;19.57;54.87;102770.50;5113399;27;45386;-87
2023/02/03 12:34:52;;;;;;;;;5.50;5.00;;;;;19.58;55.03;102752.75;5106123;27;46258;-78
2023/02/03 12:37:41;;;;;;;;;8.00;4.50;;;;;19.64;54.66;102756.09;5111542;27;45800;-87
2023/02/03 12:40:16;;;;;;;;;5.75;3.25;;;;;19.66;54.37;102748.06;5109479;27;45576;-82
2023/02/03 12:42:58;;;;;;;;;6.50;2.50;;;;;19.68;54.28;102743.56;5128594;27;45547;-91
2023/02/03 12:45:27;;;;;;;;;4.50;2.75;;;;;19.72;54.05;102755.81;5094832;27;48225;-87
2023/02/03 12:48:01;;;;;;;;;4.75;2.50;;;;;19.79;54.08;102760.03;5107346;27;45233;-90
2023/02/03 12:50:40;;;;;;;;;6.00;3.00;;;;;19.89;53.85;102772.09;5110060;27;45471;-91
2023/02/03 12:53:13;;;;;;;;;2.50;1.50;;;;;19.91;53.82;102762.28;5110511;27;45526;-84
2023/02/03 12:55:49;;;;;;;;;2.25;1.75;;;;;19.77;54.09;102737.13;5097205;27;46814;-80
2023/02/03 12:58:21;;;;;;;;;1.00;1.00;;;;;19.86;53.72;102756.25;5090012;27;45608;-78
2023/02/03 13:00:53;;;;;;;;;0.75;0.50;;;;;19.89;53.63;102748.19;5108150;27;45395;-75
2023/02/03 13:03:38;;;;;;;;;2.50;1.75;;;;;19.98;53.37;102760.31;5102124;27;45315;-76
2023/02/03 13:06:15;;;;;;;;;3.25;1.25;;;;;19.99;52.88;102743.44;5111089;27;45503;-76
2023/02/03 13:08:55;;;;;;;;;4.00;1.00;;;;;19.97;53.12;102744.41;5110045;27;45306;-77
2023/02/03 13:11:31;;;;;;;;;2.25;0.50;;;;;20.01;52.86;102743.38;5087400;27;45332;-75
2023/02/03 13:14:04;;;;;;;;;0.75;0.00;;;;;19.92;52.88;102733.94;5082490;27;45531;-81
2023/02/03 13:16:36;;;;;;;;;1.00;1.00;;;;;19.89;52.43;102728.72;5080320;27;46825;-79
2023/02/03 13:19:05;;;;;;;;;3.25;0.50;;;;;19.88;52.37;102724.31;5079682;27;45453;-75
2023/02/03 13:21:31;;;;;;;;;0.00;0.00;;;;;20.00;52.39;102728.34;5093608;27;45590;-78
2023/02/03 13:23:56;;;;;;;;;0.00;0.00;;;;;20.02;52.11;102735.34;5103852;27;67307;-77
2023/02/03 13:26:47;;;;;;;;;0.75;0.75;;;;;20.03;52.18;102738.91;5074276;27;46154;-83
2023/02/03 13:29:37;;;;;;;;;3.75;1.50;;;;;20.04;52.15;102736.19;5089256;27;45534;-79
2023/02/03 13:32:08;;;;;;;;;2.00;0.50;;;;;20.04;52.24;102728.22;5097381;27;45432;-77
2023/02/03 13:34:51;;;;;;;;;3.25;1.75;;;;;20.06;51.84;102726.38;5088954;27;45455;-78
2023/02/03 13:37:38;;;;;;;;;5.50;2.75;;;;;20.03;51.75;102705.19;5094860;27;46410;-82
2023/02/03 13:40:13;;;;;;;;;1.25;1.00;;;;;20.10;51.89;102716.50;5097519;27;45730;-78
2023/02/03 13:42:44;;;;;;;;;2.50;2.50;;;;;20.12;51.58;102721.75;5101133;27;45460;-77
2023/02/03 13:45:28;;;;;;;;;2.75;2.00;;;;;20.13;51.57;102724.31;5087976;27;45695;-78
2023/02/03 13:47:56;;;;;;;;;4.75;1.75;;;;;20.04;51.52;102704.28;5088684;27;45641;-79
2023/02/03 13:50:29;;;;;;;;;3.50;1.25;;;;;20.04;51.38;102709.59;5081009;27;47108;-80
2023/02/03 13:52:59;;;;;;;;;2.25;1.75;;;;;20.16;51.51;102716.25;5091486;27;45462;-80
2023/02/03 13:55:51;;;;;;;;;4.00;3.00;;;;;20.07;51.19;102706.81;5092495;27;45576;-80
2023/02/03 13:58:31;;;;;;;;;4.50;3.00;;;;;20.13;50.76;102724.31;5077215;27;48309;-80
2023/02/03 14:01:25;;;;;;;;;2.00;1.75;;;;;20.10;50.52;102724.47;5099585;27;46042;-80
2023/02/03 14:03:51;;;;;;;;;3.00;3.00;;;;;20.05;50.44;102710.47;5096186;27;45362;-80
2023/02/03 14:06:35;;;;;;;;;5.50;2.50;;;;;20.16;50.38;102729.53;5082775;27;45697;-81
2023/02/03 14:09:02;;;;;;;;;3.00;3.00;;;;;19.95;50.30;102693.97;5100238;27;46336;-80
2023/02/03 14:11:40;;;;;;;;;0.50;0.50;;;;;20.00;50.52;102717.72;5077345;27;45446;-80
2023/02/03 14:14:05;;;;;;;;;4.75;2.50;;;;;20.15;50.13;102725.16;5099086;27;45398;-80
2023/02/03 14:16:50;;;;;;;;;3.33;1.67;;;;;20.15;50.22;102738.47;5103681;27;45333;-81
2023/02/03 14:19:21;;;;;;;;;3.25;1.50;;;;;20.14;49.68;102731.41;5102535;27;45289;-81
2023/02/03 14:21:51;;;;;;;;;3.50;1.50;;;;;20.15;49.73;102721.63;5107067;27;45464;-81
2023/02/03 14:24:17;;;;;;;;;3.25;1.50;;;;;20.02;49.69;102706.09;5098335;27;45347;-81
2023/02/03 14:26:49;;;;;;;;;2.50;1.75;;;;;20.09;49.38;102718.25;5106856;27;45404;-80
2023/02/03 14:29:24;;;;;;;;;1.50;1.50;;;;;20.13;49.58;102720.81;5083569;27;47366;-80
2023/02/03 14:31:56;;;;;;;;;4.75;3.50;;;;;20.10;49.59;102725.31;5099256;27;45671;-82
2023/02/03 14:34:39;;;;;;;;;2.50;2.00;;;;;20.04;49.23;102732.63;5100190;27;45332;-81
2023/02/03 14:37:22;;;;;;;;;2.00;2.00;;;;;20.03;49.18;102722.94;5075946;28;45461;-81
2023/02/03 14:40:15;;;;;;;;;3.00;1.75;;;;;20.10;49.26;102724.47;5095083;27;46238;-81
2023/02/03 14:42:56;;;;;;;;;1.75;1.75;;;;;20.09;49.30;102730.69;5089250;27;45436;-81
2023/02/03 14:45:24;;;;;;;;;3.00;2.75;;;;;20.06;49.15;102726.38;5098850;27;45346;-81
2023/02/03 14:47:52;;;;;;;;;4.25;2.00;;;;;20.07;48.66;102732.53;5097951;27;45433;-81
2023/02/03 14:50:36;;;;;;;;;6.25;3.00;;;;;20.06;49.04;102734.34;5092879;27;45464;-81
2023/02/03 14:53:14;;;;;;;;;1.75;1.75;;;;;20.05;48.85;102742.34;5093656;27;45874;-81
2023/02/03 14:55:54;;;;;;;;;5.00;2.00;;;;;20.02;48.63;102743.31;5094193;27;45441;-81
2023/02/03 14:58:26;;;;;;;;;1.50;1.00;;;;;20.03;48.64;102755.69;5094889;27;45516;-81
2023/02/03 15:00:53;;;;;;;;;2.50;1.50;;;;;20.01;48.44;102743.38;5071397;27;47422;-81
2023/02/03 15:03:21;;;;;;;;;1.00;0.75;;;;;19.98;48.38;102732.88;5089389;27;45939;-81
2023/02/03 15:06:00;;;;;;;;;4.00;2.50;;;;;19.91;48.42;102730.41;5082827;27;45399;-81
2023/02/03 15:08:57;;;;;;;;;1.25;1.25;;;;;19.99;48.08;102754.06;5095511;27;45504;-81
2023/02/03 15:11:33;;;;;;;;;1.75;1.75;;;;;19.98;48.43;102762.97;5091857;27;45673;-81
2023/02/03 15:14:16;;;;;;;;;3.25;1.50;;;;;19.99;48.36;102770.03;5087851;27;45706;-81
2023/02/03 15:16:43;;;;;;;;;3.00;1.25;;;;;19.96;48.31;102767.47;5090474;27;45385;-81
2023/02/03 15:19:19;;;;;;;;;1.50;1.50;;;;;19.92;47.77;102764.03;5094278;27;45418;-81
2023/02/03 15:21:45;;;;;;;;;1.25;1.25;;;;;19.90;48.15;102760.56;5070306;28;47720;-81
2023/02/03 15:24:18;;;;;;;;;1.50;1.50;;;;;19.89;48.09;102750.84;5110496;27;45889;-81
2023/02/03 15:26:45;;;;;;;;;2.00;1.25;;;;;19.93;48.12;102759.59;5088000;27;45454;-81
2023/02/03 15:29:20;;;;;;;;;5.75;2.50;;;;;19.86;48.23;102747.44;5093895;27;45311;-81
2023/02/03 15:31:48;;;;;;;;;0.75;0.75;;;;;19.83;47.88;102737.78;5099574;27;46304;-81
2023/02/03 15:34:20;;;;;;;;;1.75;1.75;;;;;19.92;47.61;102755.22;5094447;27;45606;-81
2023/02/03 15:36:49;;;;;;;;;2.00;1.25;;;;;19.84;47.79;102739.50;5088148;27;46297;-81
2023/02/03 15:39:27;;;;;;;;;1.25;1.25;;;;;19.90;47.74;102759.69;5095702;27;45570;-81
2023/02/03 15:41:54;;;;;;;;;3.00;1.75;;;;;19.89;47.55;102760.63;5086786;27;47489;-81
2023/02/03 15:44:30;;;;;;;;;2.50;1.00;;;;;19.89;47.72;102768.59;5096432;27;45328;-81
2023/02/03 15:46:56;;;;;;;;;0.50;0.50;;;;;19.85;47.80;102759.00;5091619;27;45446;-81
2023/02/03 15:49:29;;;;;;;;;2.25;1.50;;;;;19.88;47.27;102761.53;5087990;27;71329;-81
2023/02/03 15:51:58;;;;;;;;;1.25;0.75;;;;;19.83;47.48;102753.72;5074932;27;48207;-81
2023/02/03 15:54:32;;;;;;;;;2.25;0.75;;;;;19.85;47.48;102773.16;5079622;27;46221;-81
2023/02/03 15:57:01;;;;;;;;;1.50;1.50;;;;;19.83;47.66;102769.69;5092624;27;45384;-81
2023/02/03 15:59:33;;;;;;;;;3.50;2.00;;;;;19.81;47.46;102766.16;5090298;27;45465;-81
2023/02/03 16:02:01;;;;;;;;;2.50;1.75;;;;;19.83;47.33;102788.28;5092505;27;45333;-80
2023/02/03 16:04:29;;;;;;;;;1.25;1.25;;;;;19.80;47.35;102782.19;5091370;27;45461;-81
2023/02/03 16:06:55;;;;;;;;;1.25;1.00;;;;;19.78;47.18;102786.66;5104068;27;58345;-81
2023/02/03 16:09:38;;;;;;;;;0.75;0.25;;;;;19.81;47.51;102792.75;5098242;27;45477;-81
2023/02/03 16:12:33;;;;;;;;;0.75;0.75;;;;;19.81;47.01;102791.88;5095736;27;45427;-81
2023/02/03 16:15:00;;;;;;;;;0.50;0.50;;;;;19.79;47.35;102785.75;5074907;27;70555;-81
2023/02/03 16:17:32;;;;;;;;;1.75;1.25;;;;;19.72;47.14;102774.41;5094851;27;45552;-81
2023/02/03 16:20:10;;;;;;;;;1.25;1.25;;;;;19.78;47.13;102787.56;5093238;27;45481;-81
2023/02/03 16:22:38;;;;;;;;;1.00;0.75;;;;;19.75;47.04;102785.00;5092358;27;47171;-81
2023/02/03 16:25:22;;;;;;;;;3.25;2.00;;;;;19.74;46.92;102785.91;5095440;27;45394;-81
2023/02/03 16:53:00;;;;;;;;;1.75;1.75;;;;;19.61;46.52;102789.84;5097572;27;45447;-81
2023/02/03 16:55:26;;;;;;;;;2.75;2.00;;;;;19.65;46.72;102799.44;5097831;27;45340;-81
2023/02/03 16:57:51;;;;;;;;;3.25;1.50;;;;;19.64;46.47;102805.69;5096134;27;62490;-81
2023/02/03 17:00:19;;;;;;;;;1.50;1.50;;;;;19.61;46.27;102801.34;5080547;27;45350;-81
2023/02/03 17:02:45;;;;;;;;;1.50;1.50;;;;;19.59;46.65;102797.88;5094738;27;45385;-81
2023/02/03 17:05:10;;;;;;;;;2.00;1.75;;;;;19.63;46.73;102806.59;5091526;27;55349;-81
2023/02/03 17:07:35;;;;;;;;;3.00;2.00;;;;;19.64;46.41;102808.34;5071917;27;67702;-81
2023/02/03 17:10:01;;;;;;;;;2.50;1.75;;;;;19.61;46.42;102795.16;5095802;27;56851;-81
2023/02/03 17:12:29;;;;;;;;;1.50;1.50;;;;;19.57;46.31;102789.09;5101425;27;45684;-81
2023/02/03 17:14:57;;;;;;;;;0.00;0.00;;;;;19.63;46.21;102798.63;5078907;27;48066;-81
2023/02/03 17:17:22;;;;;;;;;3.75;1.75;;;;;19.59;46.17;102800.53;5096777;27;45838;-81
2023/02/03 17:19:48;;;;;;;;;2.00;1.00;;;;;19.60;46.17;102796.06;5080363;27;52577;-81
2023/02/03 17:22:13;;;;;;;;;3.50;3.00;;;;;19.58;46.27;102796.13;5093130;27;54328;-81
2023/02/03 17:24:39;;;;;;;;;1.25;1.25;;;;;19.60;46.26;102799.63;5081232;27;47257;-81
2023/02/03 17:27:04;;;;;;;;;1.00;1.00;;;;;19.48;46.10;102779.63;5086176;27;55686;-81
2023/02/03 17:29:29;;;;;;;;;2.50;2.50;;;;;19.58;46.09;102800.56;5092247;27;59616;-81
2023/02/03 17:31:55;;;;;;;;;2.25;2.25;;;;;19.45;46.07;102768.22;5093106;27;45734;-81
2023/02/03 17:34:21;;;;;;;;;4.00;2.50;;;;;19.59;46.04;102787.25;5095959;27;62028;-81
2023/02/03 17:36:46;;;;;;;;;3.00;2.50;;;;;19.59;46.04;102781.06;5093880;27;45371;-80
2023/02/03 17:39:11;;;;;;;;;1.75;1.75;;;;;19.53;46.33;102779.50;5094947;27;45406;-81
2023/02/03 17:41:37;;;;;;;;;2.00;1.00;;;;;19.53;45.91;102792.75;5080016;27;60734;-81
2023/02/03 17:44:02;;;;;;;;;3.50;3.00;;;;;19.56;46.22;102800.63;5093917;27;45912;-81
2023/02/03 17:46:29;;;;;;;;;3.00;2.00;;;;;19.51;45.85;102791.91;5092804;27;50300;-81
2023/02/03 17:48:55;;;;;;;;;2.75;2.00;;;;;19.56;45.70;102802.41;5096679;27;45561;-81
2023/02/03 17:51:24;;;;;;;;;2.00;2.00;;;;;19.54;46.14;102797.13;5084086;27;45636;-81
2023/02/03 17:53:50;;;;;;;;;2.50;2.00;;;;;19.45;46.10;102778.84;5088607;27;48179;-81
2023/02/03 17:56:22;;;;;;;;;3.50;2.50;;;;;19.48;45.75;102792.91;5093895;27;45357;-81
2023/02/03 17:58:47;;;;;;;;;2.75;2.25;;;;;19.47;45.86;102777.88;5078344;27;45251;-81
2023/02/03 18:01:17;;;;;;;;;0.75;0.75;;;;;19.49;45.99;102789.31;5092316;27;52068;-81
2023/02/03 18:03:47;;;;;;;;;4.00;2.25;;;;;19.53;45.92;102795.41;5095614;27;47265;-81
2023/02/03 18:06:19;;;;;;;;;3.00;2.50;;;;;19.43;46.08;102788.66;5081987;27;45742;-81
2023/02/03 18:08:45;;;;;;;;;2.25;1.50;;;;;19.51;45.67;102808.75;5089457;27;45572;-80
2023/02/03 18:11:11;;;;;;;;;4.00;1.50;;;;;19.51;45.82;102805.19;5088961;27;45362;-80
2023/02/03 18:13:38;;;;;;;;;3.25;3.00;;;;;19.48;45.80;102811.50;5098579;27;46068;-80
2023/02/03 18:16:04;;;;;;;;;2.75;1.75;;;;;19.46;45.81;102809.78;5080790;27;46165;-80
2023/02/03 18:18:30;;;;;;;;;2.25;2.00;;;;;19.51;45.71;102818.47;5098945;27;45431;-80
2023/02/03 18:20:55;;;;;;;;;1.75;1.75;;;;;19.48;45.33;102802.66;5095039;27;45438;-80
2023/02/03 18:23:21;;;;;;;;;4.75;2.50;;;;;19.48;45.65;102815.94;5097596;27;45981;-80
2023/02/03 18:25:53;;;;;;;;;4.50;2.75;;;;;19.45;45.66;102818.69;5080707;27;45414;-80
2023/02/03 18:28:19;;;;;;;;;3.00;1.50;;;;;19.48;45.38;102822.13;5097273;27;45525;-80
2023/02/03 18:30:45;;;;;;;;;3.00;2.00;;;;;19.49;45.73;102838.91;5088192;27;45613;-80
2023/02/03 18:33:10;;;;;;;;;2.00;2.00;;;;;19.32;45.42;102807.59;5079794;27;47123;-80
2023/02/03 18:35:36;;;;;;;;;2.00;2.00;;;;;19.25;45.61;102798.06;5101777;27;45330;-80
2023/02/03 18:38:01;;;;;;;;;3.00;2.00;;;;;19.25;45.23;102792.75;5094245;27;45438;-80
2023/02/03 18:40:27;;;;;;;;;1.50;1.50;;;;;19.45;45.34;102827.50;5077531;27;45771;-80
2023/02/03 18:42:55;;;;;;;;;4.50;2.50;;;;;19.38;45.26;102815.34;5083001;27;56435;-80
2023/02/03 18:45:20;;;;;;;;;1.00;1.00;;;;;19.42;45.29;102840.88;5080426;27;45647;-80
2023/02/03 18:47:46;;;;;;;;;3.75;3.50;;;;;19.44;45.64;102843.47;5095563;27;45402;-80
2023/02/03 18:50:11;;;;;;;;;5.25;3.00;;;;;19.40;45.11;102840.06;5081348;27;68778;-80
2023/02/03 18:52:36;;;;;;;;;4.75;3.00;;;;;19.38;45.42;102825.09;5092429;27;45370;-80
2023/02/03 18:55:03;;;;;;;;;2.75;2.75;;;;;19.34;45.39;102829.63;5099269;27;47702;-80
2023/02/03 18:57:29;;;;;;;;;2.25;2.25;;;;;19.37;45.51;102840.16;5091801;27;45470;-80
2023/02/03 18:59:54;;;;;;;;;3.75;2.75;;;;;19.32;45.25;102836.78;5081882;27;45483;-80
2023/02/03 19:02:21;;;;;;;;;5.00;3.00;;;;;19.44;45.06;102859.41;5088925;27;45347;-80
2023/02/03 19:04:47;;;;;;;;;2.00;2.00;;;;;19.38;45.21;102846.34;5096030;27;45785;-80
2023/02/03 19:07:12;;;;;;;;;2.75;2.75;;;;;19.43;45.24;102861.22;5095919;27;45354;-80
2023/02/03 19:09:39;;;;;;;;;3.75;2.75;;;;;19.39;45.31;102846.31;5095988;27;62318;-80
2023/02/03 19:12:04;;;;;;;;;4.25;2.75;;;;;19.26;45.23;102829.00;5080417;27;48115;-80
2023/02/03 19:14:31;;;;;;;;;3.25;2.75;;;;;19.37;45.30;102849.91;5092422;27;45433;-80
2023/02/03 19:16:56;;;;;;;;;2.00;2.00;;;;;19.41;45.26;102862.19;5095705;27;45287;-80
2023/02/03 19:19:22;;;;;;;;;3.75;2.75;;;;;19.41;44.98;102863.06;5098980;27;45456;-80
2023/02/03 19:21:47;;;;;;;;;3.50;3.00;;;;;19.39;45.29;102864.00;5095591;27;45405;-80
2023/02/03 19:24:14;;;;;;;;;3.75;2.50;;;;;19.39;44.77;102867.53;5080142;27;45422;-80
2023/02/03 19:26:39;;;;;;;;;2.75;2.75;;;;;19.22;45.21;102838.81;5082501;27;45397;-80
2023/02/03 19:29:04;;;;;;;;;4.00;4.00;;;;;19.38;45.34;102868.44;5100722;27;69630;-80
2023/02/03 19:31:30;;;;;;;;;4.00;3.00;;;;;19.39;45.04;102871.97;5094927;27;47125;-80
2023/02/03 19:34:01;;;;;;;;;5.25;4.50;;;;;19.26;44.87;102855.53;5092542;27;45620;-80
2023/02/03 19:36:27;;;;;;;;;3.75;3.00;;;;;19.35;44.91;102871.19;5099102;27;45354;-80
2023/02/03 19:38:53;;;;;;;;;6.00;4.00;;;;;19.34;45.24;102866.81;5092652;27;45182;-80
2023/02/03 19:41:19;;;;;;;;;3.25;2.75;;;;;19.37;44.88;102880.00;5091027;27;46587;-80
2023/02/03 19:43:44;;;;;;;;;3.75;3.00;;;;;19.38;45.08;102875.53;5089783;27;45719;-80
2023/02/03 19:46:11;;;;;;;;;2.75;2.50;;;;;19.19;45.18;102841.56;5094071;27;45336;-80
2023/02/03 19:48:38;;;;;;;;;2.75;2.75;;;;;19.36;44.85;102864.97;5074802;27;45550;-80
2023/02/03 19:51:04;;;;;;;;;4.25;4.00;;;;;19.34;44.66;102872.13;5082368;27;47390;-80
2023/02/03 19:53:29;;;;;;;;;3.50;3.25;;;;;19.35;44.81;102882.69;5097680;27;46042;-80
2023/02/03 19:55:54;;;;;;;;;3.50;3.50;;;;;19.31;44.96;102872.19;5071840;27;45358;-80
2023/02/03 19:58:20;;;;;;;;;5.75;4.50;;;;;19.33;44.93;102871.22;5093006;27;45761;-81
2023/02/03 20:00:47;;;;;;;;;3.00;3.00;;;;;19.33;44.86;102879.19;5093952;27;56247;-81
2023/02/03 20:03:17;;;;;;;;;5.00;3.50;;;;;19.32;45.26;102889.88;5097527;27;53632;-81
2023/02/03 20:05:42;;;;;;;;;3.25;3.00;;;;;19.26;44.83;102882.09;5102519;27;45440;-81
2023/02/03 20:08:11;;;;;;;;;3.00;3.00;;;;;19.33;44.82;102889.81;5094206;27;54131;-80
2023/02/03 20:10:44;;;;;;;;;5.00;3.75;;;;;19.18;44.81;102858.44;5080926;27;47345;-80
2023/02/03 20:13:13;;;;;;;;;5.00;4.75;;;;;19.10;44.87;102850.66;5097627;27;45442;-80
2023/02/03 20:15:38;;;;;;;;;3.50;3.50;;;;;19.10;44.76;102852.47;5081730;27;45299;-80
2023/02/03 20:18:15;;;;;;;;;;;;;;;;;;;;;
2023/02/03 20:20:41;;;;;;;;;4.50;4.50;;;;;19.29;44.77;102884.66;5092275;27;75694;-80
2023/02/03 20:23:09;;;;;;;;;5.25;4.00;;;;;19.20;44.60;102880.47;5084596;27;45423;-80
2023/02/03 20:26:10;;;;;;;;;4.25;4.25;;;;;19.08;44.32;102856.94;5093121;27;45295;-80
2023/02/03 20:28:35;;;;;;;;;4.00;3.00;;;;;19.29;44.76;102898.78;5111104;27;45405;-80
2023/02/03 20:31:01;;;;;;;;;3.75;3.00;;;;;19.07;44.60;102861.41;5098714;27;47572;-81
2023/02/03 20:33:34;;;;;;;;;3.75;3.75;;;;;19.06;44.72;102853.47;5084332;27;45727;-80
2023/02/03 20:36:05;;;;;;;;;5.00;4.00;;;;;19.29;44.37;102893.47;5089369;27;45279;-80
2023/02/03 20:38:30;;;;;;;;;5.75;4.00;;;;;19.30;44.54;102899.66;5076616;27;45235;-80
2023/02/03 20:40:56;;;;;;;;;6.25;6.00;;;;;19.20;44.84;102890.25;5091996;27;46122;-80
2023/02/03 20:43:26;;;;;;;;;5.25;4.00;;;;;19.25;44.42;102893.63;5100534;27;45397;-80
2023/02/03 20:45:54;;;;;;;;;5.00;5.00;;;;;19.12;44.65;102872.75;5086013;27;45564;-80
2023/02/03 20:48:22;;;;;;;;;8.75;4.00;;;;;19.28;44.39;102898.84;5095352;27;46677;-80
2023/02/03 20:50:49;;;;;;;;;3.00;3.00;;;;;19.28;44.64;102909.44;5091983;27;47929;-81
2023/02/03 20:53:23;;;;;;;;;4.75;4.50;;;;;19.27;44.46;102890.00;5101508;27;45313;-80
2023/02/03 20:55:49;;;;;;;;;5.50;4.25;;;;;19.12;44.58;102880.72;5098225;27;45574;-80
2023/02/03 20:58:21;;;;;;;;;5.00;4.75;;;;;19.22;44.34;102897.22;5088271;27;45378;-80
2023/02/03 21:00:47;;;;;;;;;5.75;3.75;;;;;19.25;44.11;102910.41;5095036;27;46356;-80
2023/02/03 21:05:57;;;;;;;;;4.50;4.25;;;;;19.27;44.42;102911.25;5098746;27;45486;-80
2023/02/03 21:08:24;;;;;;;;;5.00;3.25;;;;;19.19;44.26;102892.00;5098053;27;45581;-80
2023/02/03 21:10:49;;;;;;;;;5.00;4.00;;;;;19.26;44.13;102911.28;5077859;27;46989;-80
2023/02/03 21:13:22;;;;;;;;;4.25;3.75;;;;;19.27;44.50;102910.38;5090762;27;45500;-80
2023/02/03 21:15:52;;;;;;;;;4.25;3.75;;;;;19.24;44.32;102906.00;5091230;27;45379;-80
2023/02/03 21:18:42;;;;;;;;;5.75;4.00;;;;;19.13;44.43;102890.41;5098361;27;45500;-81
2023/02/03 21:21:13;;;;;;;;;4.75;2.75;;;;;19.11;44.36;102880.75;5088867;27;45389;-80
2023/02/03 21:23:41;;;;;;;;;5.25;4.00;;;;;19.25;44.43;102906.91;5088366;27;45299;-80
2023/02/03 21:26:20;;;;;;;;;4.00;2.75;;;;;19.24;44.25;102908.66;5099649;27;45415;-80
2023/02/03 21:28:53;;;;;;;;;6.75;4.00;;;;;19.18;44.31;102890.28;5094729;27;45459;-80
2023/02/03 21:31:30;;;;;;;;;4.25;4.00;;;;;19.23;44.22;102908.72;5079595;27;47582;-80
2023/02/03 21:34:00;;;;;;;;;4.50;3.00;;;;;19.12;44.02;102886.03;5099149;27;45831;-80
2023/02/03 21:36:29;;;;;;;;;4.00;4.00;;;;;19.16;44.06;102895.63;5091316;27;45413;-81
2023/02/03 21:38:57;;;;;;;;;7.50;4.75;;;;;19.12;44.17;102887.78;5098662;27;45547;-81
2023/02/03 21:41:24;;;;;;;;;3.75;3.75;;;;;19.20;44.11;102900.84;5092535;27;46734;-81
2023/02/03 21:43:55;;;;;;;;;4.75;4.75;;;;;19.18;43.92;102892.06;5096591;27;45619;-81
2023/02/03 21:46:34;;;;;;;;;4.75;4.00;;;;;19.12;44.13;102890.44;5090434;27;45453;-81
2023/02/03 21:49:01;;;;;;;;;4.75;3.50;;;;;19.21;44.15;102914.09;5097830;27;45939;-81
2023/02/03 21:51:32;;;;;;;;;6.50;3.75;;;;;19.20;43.88;102920.28;5096794;27;45354;-81
2023/02/03 21:53:59;;;;;;;;;5.25;4.50;;;;;19.18;44.20;102915.97;5100262;27;45756;-81
2023/02/03 21:56:37;;;;;;;;;6.75;4.25;;;;;19.21;44.22;102914.09;5094940;27;45455;-81
2023/02/03 21:59:03;;;;;;;;;6.75;6.75;;;;;19.20;44.11;102912.34;5097095;27;45492;-81
2023/02/03 22:01:35;;;;;;;;;5.75;5.75;;;;;19.11;43.87;102902.84;5095238;27;47391;-80
2023/02/03 22:04:02;;;;;;;;;6.00;6.00;;;;;19.15;44.27;102911.59;5083321;27;45193;-81
2023/02/03 22:06:43;;;;;;;;;9.50;8.25;;;;;19.20;44.19;102924.75;5099319;27;45276;-81
2023/02/03 22:09:23;;;;;;;;;7.50;5.50;;;;;19.11;44.16;102907.28;5074782;27;45349;-80
2023/02/03 22:11:48;;;;;;;;;7.50;7.50;;;;;19.19;43.97;102923.84;5082826;27;47069;-80
2023/02/03 22:14:15;;;;;;;;;7.75;6.25;;;;;19.16;44.05;102910.69;5097850;27;45560;-80
2023/02/03 22:16:41;;;;;;;;;5.50;4.25;;;;;19.15;44.41;102911.59;5086951;27;45542;-81
2023/02/03 22:19:07;;;;;;;;;5.75;5.75;;;;;19.15;44.08;102903.63;5089379;27;45559;-80
2023/02/03 22:21:33;;;;;;;;;5.25;4.50;;;;;19.13;44.15;102914.28;5081656;27;48269;-80
2023/02/03 22:23:58;;;;;;;;;5.75;5.75;;;;;19.17;44.05;102920.38;5099870;27;45254;-80
2023/02/03 22:26:24;;;;;;;;;5.00;4.00;;;;;19.18;43.91;102926.56;5095750;27;45381;-80
2023/02/03 22:28:49;;;;;;;;;5.25;5.25;;;;;19.15;43.97;102922.22;5090441;27;45339;-80
2023/02/03 22:31:15;;;;;;;;;5.00;2.75;;;;;19.13;43.83;102916.09;5080919;27;53338;-80
2023/02/03 22:33:42;;;;;;;;;4.50;4.25;;;;;19.08;44.20;102904.72;5094034;27;45799;-80
2023/02/03 22:36:09;;;;;;;;;6.25;5.00;;;;;19.12;43.96;102906.34;5096475;27;45398;-80
2023/02/03 22:38:35;;;;;;;;;8.75;4.75;;;;;19.12;43.77;102912.56;5095771;27;45498;-80
2023/02/03 22:41:01;;;;;;;;;8.00;5.00;;;;;19.16;43.97;102923.97;5093006;27;47265;-80
2023/02/03 22:43:31;;;;;;;;;2.75;1.25;;;;;19.16;43.80;102929.28;5085012;27;45793;-80
2023/02/03 22:46:00;;;;;;;;;4.00;4.00;;;;;19.13;43.53;102922.25;5086160;27;45395;-81
2023/02/03 22:48:26;;;;;;;;;6.75;4.25;;;;;19.13;44.07;102921.38;5076872;27;45851;-81
2023/02/03 22:50:51;;;;;;;;;5.75;3.00;;;;;19.09;43.74;102911.78;5080728;27;48072;-81
2023/02/03 22:53:16;;;;;;;;;4.75;4.00;;;;;19.14;43.84;102917.81;5093753;27;60983;-80
2023/02/03 22:55:42;;;;;;;;;4.25;4.25;;;;;19.07;44.16;102913.59;5092671;27;45664;-81
2023/02/03 22:58:07;;;;;;;;;4.00;4.00;;;;;19.13;43.92;102918.72;5079064;27;65024;-80
2023/02/03 23:00:35;;;;;;;;;5.75;3.25;;;;;19.12;43.98;102920.53;5091672;27;46435;-81
2023/02/03 23:03:01;;;;;;;;;5.50;4.00;;;;;19.11;44.09;102905.50;5079994;27;45236;-80
2023/02/03 23:05:26;;;;;;;;;3.75;3.50;;;;;19.03;43.92;102898.66;5077780;27;45246;-81
2023/02/03 23:07:52;;;;;;;;;5.00;3.25;;;;;19.13;43.84;102911.63;5091918;27;45291;-80
2023/02/03 23:10:23;;;;;;;;;4.75;3.75;;;;;19.12;44.02;102917.88;5107446;27;47970;-80
2023/02/03 23:12:48;;;;;;;;;6.00;4.00;;;;;19.10;43.61;102922.31;5087224;27;45386;-80
2023/02/03 23:15:16;;;;;;;;;5.75;3.75;;;;;19.11;43.83;102921.44;5095256;27;45456;-80
2023/02/03 23:17:42;;;;;;;;;4.75;4.25;;;;;19.12;43.63;102925.84;5097392;27;45496;-81
2023/02/03 23:20:08;;;;;;;;;3.00;3.00;;;;;19.11;43.78;102921.44;5097475;27;45457;-80
2023/02/03 23:22:34;;;;;;;;;3.25;2.75;;;;;19.07;43.68;102914.47;5073763;27;45763;-80
2023/02/03 23:24:59;;;;;;;;;4.25;4.00;;;;;19.09;43.79;102928.56;5089436;27;45530;-81
2023/02/03 23:27:25;;;;;;;;;5.00;3.00;;;;;19.11;43.77;102924.06;5096065;27;56667;-81
2023/02/03 23:29:50;;;;;;;;;5.75;3.75;;;;;19.08;43.89;102932.13;5095446;27;45563;-80
2023/02/03 23:32:16;;;;;;;;;5.25;3.25;;;;;19.09;44.15;102933.88;5075330;27;45417;-81
2023/02/03 23:37:25;;;;;;;;;5.75;3.25;;;;;19.05;43.60;102926.91;5088401;27;45473;-80
2023/02/03 23:39:51;;;;;;;;;6.00;3.75;;;;;19.08;43.81;102931.25;5093900;27;45504;-81
2023/02/03 23:42:16;;;;;;;;;2.75;2.75;;;;;19.02;43.74;102927.00;5078630;27;45731;-80
2023/02/03 23:44:42;;;;;;;;;4.75;4.25;;;;;19.03;43.85;102930.50;5074895;28;45326;-80
2023/02/03 23:47:07;;;;;;;;;4.75;2.75;;;;;19.03;43.75;102938.47;5079222;27;48229;-80
2023/02/03 23:49:32;;;;;;;;;4.75;3.75;;;;;18.95;43.59;102917.47;5081311;27;48037;-80
2023/02/03 23:51:58;;;;;;;;;4.50;3.00;;;;;18.95;43.75;102917.47;5070065;27;45449;-81
2023/02/03 23:54:24;;;;;;;;;5.50;2.75;;;;;18.93;43.63;102912.19;5094576;27;54553;-80
2023/02/03 23:56:49;;;;;;;;;3.75;3.75;;;;;19.07;43.79;102937.47;5078784;27;45443;-80
2023/02/03 23:59:15;;;;;;;;;5.25;2.75;;;;;18.93;43.56;102912.19;5095481;27;45583;-81
